OAL707 LGAV-LGSK
Flight info
| Callsign | OAL707 |
|---|---|
| Flight time | 0h 19m |
| Altitude | 16000 |
| Route | ROPOX1N ROPOX M749 SIGFO SIGFO1C |
| Aircraft | DH8D/M-SDE2E3FGRY/H |
Departure
| Time | 2026-05-07 15:06 |
|---|---|
| Airport | Athens Eleftherios Venizelos International Airport (LGAV) |
Arrival
| Time | 2026-05-07 15:25 |
|---|---|
| Airport | Skiathos Island National Airport (LGSK) |
| Time | Latitude | Longitude | Altitude | Speed | Heading |
|---|---|---|---|---|---|
| 2026-05-07 14:54 | 37.94395 | 23.95276 | 317 ft | 0 kts | 37° |
| 2026-05-07 15:03 | 37.94425 | 23.95307 | 317 ft | 0 kts | 48° |
| 2026-05-07 15:03 | 37.94408 | 23.95368 | 317 ft | 19 kts | 131° |
| 2026-05-07 15:03 | 37.94321 | 23.95518 | 317 ft | 19 kts | 126° |
| 2026-05-07 15:04 | 37.94244 | 23.95642 | 317 ft | 15 kts | 123° |
| 2026-05-07 15:04 | 37.94285 | 23.95742 | 317 ft | 14 kts | 38° |
| 2026-05-07 15:04 | 37.94362 | 23.95822 | 317 ft | 14 kts | 55° |
| 2026-05-07 15:04 | 37.94345 | 23.95929 | 317 ft | 6 kts | 110° |
| 2026-05-07 15:05 | 37.94335 | 23.95965 | 317 ft | 10 kts | 110° |
| 2026-05-07 15:05 | 37.94248 | 23.96007 | 317 ft | 21 kts | 190° |
| 2026-05-07 15:05 | 37.94006 | 23.95886 | 317 ft | 55 kts | 212° |
| 2026-05-07 15:05 | 37.93588 | 23.95498 | 318 ft | 109 kts | 217° |
| 2026-05-07 15:06 | 37.92818 | 23.94749 | 586 ft | 155 kts | 219° |
| 2026-05-07 15:06 | 37.91969 | 23.93770 | 1318 ft | 177 kts | 223° |
| 2026-05-07 15:06 | 37.91011 | 23.92749 | 2160 ft | 190 kts | 212° |
| 2026-05-07 15:06 | 37.89862 | 23.91987 | 3039 ft | 193 kts | 210° |
| 2026-05-07 15:07 | 37.89077 | 23.90652 | 3850 ft | 201 kts | 257° |
| 2026-05-07 15:07 | 37.89413 | 23.88981 | 4653 ft | 208 kts | 308° |
| 2026-05-07 15:07 | 37.90639 | 23.87953 | 5238 ft | 227 kts | 334° |
| 2026-05-07 15:07 | 37.92148 | 23.87172 | 5778 ft | 241 kts | 339° |
| 2026-05-07 15:08 | 37.93716 | 23.86438 | 6557 ft | 244 kts | 340° |
| 2026-05-07 15:08 | 37.95296 | 23.85722 | 7476 ft | 240 kts | 340° |
| 2026-05-07 15:08 | 37.96890 | 23.85013 | 8181 ft | 246 kts | 340° |
| 2026-05-07 15:08 | 37.98511 | 23.84304 | 8982 ft | 247 kts | 340° |
| 2026-05-07 15:09 | 38.00123 | 23.83606 | 9706 ft | 250 kts | 340° |
| 2026-05-07 15:09 | 38.01760 | 23.82903 | 10481 ft | 251 kts | 339° |
| 2026-05-07 15:09 | 38.03422 | 23.82192 | 11194 ft | 254 kts | 339° |
| 2026-05-07 15:09 | 38.05161 | 23.81449 | 11422 ft | 275 kts | 339° |
| 2026-05-07 15:10 | 38.06972 | 23.80679 | 12036 ft | 278 kts | 338° |
| 2026-05-07 15:10 | 38.08828 | 23.79894 | 12681 ft | 279 kts | 338° |
| 2026-05-07 15:10 | 38.10695 | 23.79104 | 13258 ft | 282 kts | 337° |
| 2026-05-07 15:10 | 38.12540 | 23.78326 | 13839 ft | 284 kts | 337° |
| 2026-05-07 15:11 | 38.14430 | 23.77528 | 14483 ft | 283 kts | 337° |
| 2026-05-07 15:11 | 38.16312 | 23.76788 | 14980 ft | 289 kts | 341° |
| 2026-05-07 15:11 | 38.18291 | 23.76246 | 15446 ft | 295 kts | 344° |
| 2026-05-07 15:11 | 38.20301 | 23.75734 | 15992 ft | 296 kts | 344° |
| 2026-05-07 15:12 | 38.22381 | 23.75200 | 16129 ft | 311 kts | 344° |
| 2026-05-07 15:12 | 38.24545 | 23.74641 | 16155 ft | 326 kts | 344° |
| 2026-05-07 15:12 | 38.26811 | 23.74054 | 16128 ft | 338 kts | 344° |
| 2026-05-07 15:12 | 38.29161 | 23.73445 | 16113 ft | 347 kts | 344° |
| 2026-05-07 15:13 | 38.31563 | 23.72824 | 16099 ft | 348 kts | 344° |
| 2026-05-07 15:13 | 38.33904 | 23.72219 | 16097 ft | 341 kts | 344° |
| 2026-05-07 15:13 | 38.36226 | 23.71615 | 16101 ft | 336 kts | 343° |
| 2026-05-07 15:13 | 38.38505 | 23.71020 | 16110 ft | 334 kts | 344° |
| 2026-05-07 15:14 | 38.40804 | 23.70417 | 16113 ft | 335 kts | 344° |
| 2026-05-07 15:14 | 38.43080 | 23.69821 | 16107 ft | 336 kts | 344° |
| 2026-05-07 15:14 | 38.45380 | 23.69218 | 16108 ft | 337 kts | 344° |
| 2026-05-07 15:14 | 38.47691 | 23.68613 | 16101 ft | 337 kts | 343° |
| 2026-05-07 15:15 | 38.49977 | 23.68013 | 16100 ft | 338 kts | 344° |
| 2026-05-07 15:15 | 38.52285 | 23.67407 | 16106 ft | 338 kts | 344° |
| 2026-05-07 15:15 | 38.54610 | 23.66796 | 16098 ft | 338 kts | 344° |
| 2026-05-07 15:15 | 38.56916 | 23.66190 | 16095 ft | 339 kts | 344° |
| 2026-05-07 15:16 | 38.59213 | 23.65585 | 16103 ft | 339 kts | 344° |
| 2026-05-07 15:16 | 38.61524 | 23.64977 | 16112 ft | 339 kts | 344° |
| 2026-05-07 15:16 | 38.63848 | 23.64364 | 16090 ft | 339 kts | 344° |
| 2026-05-07 15:16 | 38.66175 | 23.63750 | 15948 ft | 342 kts | 344° |
| 2026-05-07 15:17 | 38.68478 | 23.63142 | 15469 ft | 330 kts | 344° |
| 2026-05-07 15:17 | 38.70690 | 23.62557 | 14967 ft | 320 kts | 343° |
| 2026-05-07 15:17 | 38.72828 | 23.61989 | 14403 ft | 308 kts | 343° |
| 2026-05-07 15:17 | 38.74871 | 23.61445 | 13802 ft | 300 kts | 343° |
| 2026-05-07 15:18 | 38.76918 | 23.60899 | 13183 ft | 298 kts | 344° |
| 2026-05-07 15:18 | 38.78932 | 23.60362 | 12565 ft | 300 kts | 344° |
| 2026-05-07 15:18 | 38.81019 | 23.59805 | 11900 ft | 310 kts | 345° |
| 2026-05-07 15:18 | 38.83160 | 23.59235 | 11222 ft | 318 kts | 345° |
| 2026-05-07 15:19 | 38.85348 | 23.58656 | 10543 ft | 321 kts | 346° |
| 2026-05-07 15:19 | 38.87516 | 23.58081 | 9849 ft | 315 kts | 346° |
| 2026-05-07 15:19 | 38.89624 | 23.57518 | 9215 ft | 307 kts | 346° |
| 2026-05-07 15:19 | 38.91671 | 23.56973 | 8821 ft | 289 kts | 347° |
| 2026-05-07 15:20 | 38.93584 | 23.56462 | 8371 ft | 273 kts | 347° |
| 2026-05-07 15:20 | 38.95350 | 23.55993 | 7836 ft | 248 kts | 347° |
| 2026-05-07 15:20 | 38.96989 | 23.55554 | 7220 ft | 234 kts | 346° |
| 2026-05-07 15:20 | 38.98557 | 23.55134 | 6598 ft | 230 kts | 348° |
| 2026-05-07 15:21 | 39.00062 | 23.54732 | 6033 ft | 224 kts | 348° |
| 2026-05-07 15:21 | 39.01553 | 23.54329 | 5432 ft | 216 kts | 348° |
| 2026-05-07 15:21 | 39.02997 | 23.53940 | 4807 ft | 209 kts | 348° |
| 2026-05-07 15:21 | 39.04386 | 23.53571 | 4253 ft | 202 kts | 348° |
| 2026-05-07 15:22 | 39.05703 | 23.53001 | 3713 ft | 196 kts | 333° |
| 2026-05-07 15:22 | 39.06830 | 23.52130 | 3254 ft | 189 kts | 328° |
| 2026-05-07 15:22 | 39.07984 | 23.51219 | 2826 ft | 194 kts | 329° |
| 2026-05-07 15:22 | 39.09101 | 23.50319 | 2537 ft | 188 kts | 329° |
| 2026-05-07 15:23 | 39.10213 | 23.49462 | 2347 ft | 186 kts | 332° |
| 2026-05-07 15:23 | 39.11320 | 23.48684 | 2029 ft | 172 kts | 334° |
| 2026-05-07 15:23 | 39.12392 | 23.48311 | 1736 ft | 156 kts | 13° |
| 2026-05-07 15:23 | 39.13448 | 23.48449 | 1122 ft | 153 kts | 30° |
| 2026-05-07 15:24 | 39.14417 | 23.48919 | 704 ft | 145 kts | 21° |
| 2026-05-07 15:24 | 39.15356 | 23.49326 | 381 ft | 136 kts | 20° |
| 2026-05-07 15:24 | 39.16236 | 23.49711 | 198 ft | 132 kts | 20° |
| 2026-05-07 15:24 | 39.17110 | 23.50093 | 47 ft | 132 kts | 20° |
| 2026-05-07 15:25 | 39.17908 | 23.50449 | 63 ft | 91 kts | 19° |
| 2026-05-07 15:25 | 39.18074 | 23.50513 | 70 ft | 3 kts | 263° |
| 2026-05-07 15:25 | 39.17996 | 23.50478 | 66 ft | 21 kts | 193° |
| 2026-05-07 15:25 | 39.17926 | 23.50380 | 65 ft | 13 kts | 249° |
| 2026-05-07 15:26 | 39.17873 | 23.50306 | 63 ft | 12 kts | 201° |
| 2026-05-07 15:26 | 39.17796 | 23.50272 | 56 ft | 7 kts | 198° |
| 2026-05-07 15:26 | 39.17786 | 23.50245 | 55 ft | 4 kts | 277° |
| 2026-05-07 15:26 | 39.17797 | 23.50201 | 57 ft | 5 kts | 291° |
| 2026-05-07 15:27 | 39.17803 | 23.50179 | 58 ft | 0 kts | 290° |